createdAt,value
2022-10-20T00:04:35.342Z,12.57
2022-10-20T00:09:38.326Z,12.90
2022-10-20T00:14:40.994Z,14.20
2022-10-20T00:19:46.905Z,14.27
2022-10-20T00:24:51.276Z,13.87
2022-10-20T00:29:54.351Z,13.07
2022-10-20T00:34:57.140Z,13.63
2022-10-20T00:39:59.945Z,13.30
2022-10-20T00:45:02.736Z,14.27
2022-10-20T00:50:19.588Z,13.43
2022-10-20T00:55:28.974Z,13.47
2022-10-20T01:00:32.026Z,12.97
2022-10-20T01:05:34.881Z,14.30
2022-10-20T01:10:49.516Z,14.30
2022-10-20T01:16:02.203Z,13.97
2022-10-20T01:21:33.115Z,14.23
2022-10-20T01:26:49.802Z,13.60
2022-10-20T01:32:18.903Z,14.60
2022-10-20T01:37:49.328Z,14.07
2022-10-20T01:42:54.962Z,13.60
2022-10-20T01:48:01.189Z,14.37
2022-10-20T01:53:03.983Z,14.80
2022-10-20T01:58:30.839Z,14.83
2022-10-20T02:03:55.527Z,15.03
2022-10-20T02:09:01.224Z,14.33
2022-10-20T02:14:05.567Z,14.70
2022-10-20T02:19:10.581Z,14.77
2022-10-20T02:24:15.905Z,14.97
2022-10-20T02:29:27.013Z,14.43
2022-10-20T02:34:29.966Z,13.27
2022-10-20T02:39:32.270Z,13.67
2022-10-20T02:44:34.893Z,14.67
2022-10-20T02:49:37.854Z,13.60
2022-10-20T02:54:40.923Z,14.60
2022-10-20T02:59:43.245Z,14.40
2022-10-20T03:04:45.557Z,13.37
2022-10-20T03:09:47.803Z,13.13
2022-10-20T03:14:50.206Z,13.03
2022-10-20T03:19:52.494Z,13.77
2022-10-20T03:24:54.745Z,13.50
2022-10-20T03:29:57.090Z,14.03
2022-10-20T03:34:59.357Z,12.90
2022-10-20T03:40:02.511Z,14.00
2022-10-20T03:45:05.500Z,14.53
2022-10-20T03:50:08.498Z,13.37
2022-10-20T03:55:10.793Z,13.17
2022-10-20T04:00:13.767Z,13.63
2022-10-20T04:05:19.141Z,13.83
2022-10-20T04:10:21.438Z,14.50
2022-10-20T04:15:24.294Z,14.27
2022-10-20T04:20:26.720Z,14.03
2022-10-20T04:25:29.023Z,13.90
2022-10-20T04:30:31.391Z,14.07
2022-10-20T04:35:33.780Z,13.97
2022-10-20T04:40:36.109Z,14.33
2022-10-20T04:45:38.591Z,15.00
2022-10-20T04:50:40.938Z,13.63
2022-10-20T04:55:43.767Z,14.23
2022-10-20T05:00:46.114Z,13.70
2022-10-20T05:05:48.478Z,14.23
2022-10-20T05:10:50.760Z,14.23
2022-10-20T05:15:53.495Z,14.33
2022-10-20T05:21:08.370Z,13.90
2022-10-20T05:26:15.804Z,13.67
2022-10-20T05:31:21.700Z,13.83
2022-10-20T05:36:26.739Z,13.47
2022-10-20T05:41:33.409Z,14.07
2022-10-20T05:46:42.707Z,14.13
2022-10-20T05:51:46.681Z,13.93
2022-10-20T05:56:49.028Z,14.07
2022-10-20T06:01:52.792Z,13.87
2022-10-20T06:06:55.943Z,13.83
2022-10-20T06:11:59.681Z,12.87
2022-10-20T06:17:02.053Z,13.60
2022-10-20T06:22:07.066Z,13.70
2022-10-20T06:27:09.453Z,13.63
2022-10-20T06:32:11.747Z,13.17
2022-10-20T06:37:14.217Z,12.83
2022-10-20T06:42:16.598Z,13.13
2022-10-20T06:47:21.938Z,12.87
2022-10-20T06:52:24.338Z,13.53
2022-10-20T06:57:26.614Z,12.67
2022-10-20T07:02:29.112Z,12.73
2022-10-20T07:07:32.282Z,12.93
2022-10-20T07:12:34.914Z,12.93
2022-10-20T07:17:37.592Z,13.47
2022-10-20T07:22:40.070Z,12.17
2022-10-20T07:27:42.417Z,11.47
2022-10-20T07:32:44.697Z,12.73
2022-10-20T07:37:47.567Z,11.80
2022-10-20T07:42:49.861Z,11.70
2022-10-20T07:47:52.293Z,12.10
2022-10-20T07:52:54.728Z,11.47
2022-10-20T07:57:56.977Z,11.50
2022-10-20T08:02:59.228Z,11.80
2022-10-20T08:08:01.831Z,12.33
2022-10-20T08:13:04.143Z,12.13
2022-10-20T08:18:08.142Z,10.90
2022-10-20T08:23:10.423Z,10.77
2022-10-20T08:28:12.778Z,11.83
2022-10-20T08:33:15.054Z,11.03
2022-10-20T08:38:17.385Z,11.33
2022-10-20T08:43:20.010Z,11.00
2022-10-20T08:48:26.741Z,10.67
2022-10-20T08:53:34.279Z,10.97
2022-10-20T08:58:43.387Z,11.60
2022-10-20T09:03:52.929Z,11.13
2022-10-20T09:08:56.460Z,10.63
2022-10-20T09:13:58.853Z,11.50
2022-10-20T09:19:01.979Z,11.37
2022-10-20T09:24:06.269Z,10.97
2022-10-20T09:29:14.392Z,10.40
2022-10-20T09:34:27.275Z,10.20
2022-10-20T09:39:39.937Z,10.57
2022-10-20T09:44:49.283Z,10.40
2022-10-20T09:50:01.790Z,10.97
2022-10-20T09:55:17.010Z,11.00
2022-10-20T10:00:36.423Z,12.60
2022-10-20T10:05:39.833Z,11.90
2022-10-20T10:10:45.437Z,11.97
2022-10-20T10:15:47.993Z,12.40
2022-10-20T10:21:00.896Z,12.13
2022-10-20T10:26:24.738Z,12.20
2022-10-20T10:31:27.482Z,12.27
2022-10-20T10:36:36.861Z,11.97
2022-10-20T10:42:15.013Z,12.33
2022-10-20T10:47:46.759Z,12.47
2022-10-20T10:53:00.104Z,12.67
2022-10-20T10:58:10.024Z,11.53
2022-10-20T11:03:37.680Z,12.70
2022-10-20T11:08:48.267Z,12.57
2022-10-20T11:14:15.699Z,11.87
2022-10-20T11:19:24.869Z,13.07
2022-10-20T11:24:38.576Z,12.70
2022-10-20T11:30:05.272Z,13.93
2022-10-20T11:35:22.450Z,13.30
2022-10-20T11:40:29.506Z,12.93
2022-10-20T11:45:54.750Z,13.73
2022-10-20T11:56:37.607Z,13.43
2022-10-20T12:02:01.783Z,13.40
2022-10-20T12:07:22.275Z,13.90
2022-10-20T12:12:38.808Z,12.90
2022-10-20T12:17:42.578Z,13.73
2022-10-20T12:22:44.906Z,13.27
2022-10-20T12:28:07.641Z,11.13
2022-10-20T12:33:18.578Z,13.23
2022-10-20T12:38:22.467Z,13.27
2022-10-20T12:43:52.932Z,12.43
2022-10-20T12:48:59.930Z,13.53
2022-10-20T12:54:23.047Z,12.87
2022-10-20T12:59:29.227Z,13.47
2022-10-20T13:04:59.251Z,13.07
2022-10-20T13:10:04.203Z,13.87
2022-10-20T13:15:12.898Z,13.07
2022-10-20T13:20:46.362Z,12.47
2022-10-20T13:25:53.660Z,13.37
2022-10-20T13:30:58.356Z,13.00
2022-10-20T13:36:26.481Z,13.63
2022-10-20T13:41:43.497Z,12.10
2022-10-20T13:46:53.980Z,11.63
2022-10-20T13:52:03.807Z,11.40
2022-10-20T13:57:08.173Z,11.80
2022-10-20T14:02:25.552Z,11.30
2022-10-20T14:07:37.028Z,11.63
2022-10-20T14:12:39.912Z,12.33
2022-10-20T14:17:42.641Z,11.87
2022-10-20T14:22:46.021Z,11.80
2022-10-20T14:27:51.261Z,10.47
2022-10-20T14:32:54.705Z,11.73
2022-10-20T14:38:06.167Z,11.73
2022-10-20T14:43:47.534Z,12.00
2022-10-20T14:48:54.342Z,11.33
2022-10-20T14:54:20.063Z,11.07
2022-10-20T14:59:30.944Z,10.90
2022-10-20T15:04:36.177Z,10.63
2022-10-20T15:09:42.522Z,11.13
2022-10-20T15:14:48.923Z,10.60
2022-10-20T15:19:51.270Z,10.70
2022-10-20T15:24:53.739Z,9.87
2022-10-20T15:29:56.058Z,10.60
2022-10-20T15:35:04.784Z,10.00
2022-10-20T15:40:09.862Z,10.13
2022-10-20T15:45:19.964Z,9.37
2022-10-20T15:50:27.823Z,8.20
2022-10-20T15:55:37.312Z,7.87
2022-10-20T16:00:39.922Z,8.77
2022-10-20T16:05:42.304Z,7.80
2022-10-20T16:10:44.693Z,7.17
2022-10-20T16:15:47.155Z,7.40
2022-10-20T16:20:49.602Z,7.33
2022-10-20T16:25:52.270Z,7.50
2022-10-20T16:31:09.390Z,7.00
2022-10-20T16:36:14.929Z,7.80
2022-10-20T16:41:18.128Z,21.43
2022-10-20T16:46:20.772Z,10.03
2022-10-20T16:51:23.213Z,7.90
2022-10-20T16:56:26.364Z,7.67
2022-10-20T17:01:28.891Z,7.33
2022-10-20T17:06:31.427Z,6.97
2022-10-20T17:11:33.982Z,6.70
2022-10-20T17:16:39.542Z,6.70
2022-10-20T17:21:41.858Z,6.67
2022-10-20T17:26:44.484Z,6.73
2022-10-20T17:31:46.791Z,5.93
2022-10-20T17:36:49.157Z,6.90
2022-10-20T17:41:51.518Z,6.13
2022-10-20T17:46:53.804Z,5.50
2022-10-20T17:51:56.280Z,5.67
2022-10-20T17:56:59.362Z,5.73
2022-10-20T18:02:04.313Z,5.67
2022-10-20T18:07:06.712Z,6.30
2022-10-20T18:12:09.527Z,6.63
2022-10-20T18:17:11.888Z,6.97
2022-10-20T18:22:14.211Z,6.47
2022-10-20T18:27:16.547Z,6.80
2022-10-20T18:32:18.907Z,6.80
2022-10-20T18:37:21.305Z,7.47
2022-10-20T18:42:23.989Z,7.77
2022-10-20T18:47:26.266Z,14.83
2022-10-20T18:52:28.515Z,12.30
2022-10-20T18:57:33.016Z,8.73
2022-10-20T19:02:37.416Z,8.00
2022-10-20T19:07:41.215Z,7.57
2022-10-20T19:12:43.775Z,7.03
2022-10-20T19:17:46.507Z,6.70
2022-10-20T19:22:48.800Z,6.30
2022-10-20T19:27:51.971Z,10.03
2022-10-20T19:32:54.840Z,10.43
2022-10-20T19:37:57.201Z,6.87
2022-10-20T19:42:59.501Z,5.50
2022-10-20T19:48:02.131Z,4.70
2022-10-20T19:53:05.618Z,6.10
2022-10-20T20:03:12.102Z,5.47
2022-10-20T20:08:14.936Z,7.47
2022-10-20T20:13:17.330Z,7.73
2022-10-20T20:18:20.170Z,7.23
2022-10-20T20:23:26.069Z,10.93
2022-10-20T20:28:37.808Z,7.83
2022-10-20T20:33:40.146Z,7.43
2022-10-20T20:38:42.666Z,7.77
2022-10-20T20:43:45.235Z,7.70
2022-10-20T20:48:47.751Z,7.50
2022-10-20T20:53:50.139Z,7.80
2022-10-20T20:58:55.417Z,8.27
2022-10-20T21:04:01.453Z,8.53
2022-10-20T21:09:05.026Z,8.73
2022-10-20T21:14:07.486Z,8.53
2022-10-20T21:19:10.653Z,9.30
2022-10-20T21:24:13.189Z,8.47
2022-10-20T21:29:17.519Z,8.00
2022-10-20T21:34:19.894Z,8.30
2022-10-20T21:39:22.418Z,8.17
2022-10-20T21:44:24.806Z,8.13
2022-10-20T21:49:27.124Z,7.63
2022-10-20T21:54:29.920Z,7.43
2022-10-20T21:59:32.178Z,7.30
2022-10-20T22:04:34.900Z,8.73
2022-10-20T22:09:37.443Z,9.40
2022-10-20T22:14:42.563Z,9.23
2022-10-20T22:19:47.435Z,8.93
2022-10-20T22:24:49.810Z,8.87
2022-10-20T22:29:54.070Z,8.90
2022-10-20T22:34:59.003Z,9.57
2022-10-20T22:40:01.408Z,11.30
2022-10-20T22:45:04.087Z,10.23
2022-10-20T22:50:06.934Z,10.30
2022-10-20T22:55:09.411Z,9.80
2022-10-20T23:00:12.424Z,8.53
2022-10-20T23:05:14.995Z,7.40
2022-10-20T23:10:17.628Z,3.60
2022-10-20T23:15:20.006Z,4.00
2022-10-20T23:20:22.356Z,3.40
2022-10-20T23:25:24.745Z,3.20
2022-10-20T23:30:27.074Z,3.27
2022-10-20T23:35:29.464Z,4.10
2022-10-20T23:40:32.003Z,4.07
2022-10-20T23:45:36.994Z,2.20
2022-10-20T23:50:40.497Z,1.80
2022-10-20T23:55:43.362Z,1.50
